Time;durP1;ratioP1;P1;durP2;ratioP2;P2;SDS_P1;SDS_P2;PMS_P1;PMS_P2;Temp;Humidity;BMP_temperature;BMP_pressure;BME280_temperature;BME280_humidity;BME280_pressure;Samples;Min_cycle;Max_cycle;Signal;HPM_P1;HPM_P2
2022/05/30 00:01:19;;;;;;;13.77;11.65;;;15.80;73.80;;;;;;4965388;28;95975;-63
2022/05/30 00:03:51;;;;;;;18.20;12.05;;;15.80;73.80;;;;;;4967426;28;96058;-63
2022/05/30 00:06:23;;;;;;;19.55;13.57;;;15.80;73.70;;;;;;4966118;28;98645;-63
2022/05/30 00:09:03;;;;;;;16.30;12.18;;;15.80;73.70;;;;;;4970030;28;95420;-63
2022/05/30 00:11:36;;;;;;;18.75;12.38;;;15.80;73.70;;;;;;4964390;28;95666;-63
2022/05/30 00:14:07;;;;;;;19.60;14.07;;;15.70;73.60;;;;;;4967744;28;97212;-63
2022/05/30 00:16:38;;;;;;;18.13;14.13;;;15.70;73.70;;;;;;4961720;28;95940;-62
2022/05/30 00:19:09;;;;;;;17.05;12.57;;;15.70;73.70;;;;;;4967164;28;95653;-63
2022/05/30 00:21:40;;;;;;;17.83;14.17;;;15.70;73.70;;;;;;4965317;28;95782;-62
2022/05/30 00:24:12;;;;;;;16.50;12.63;;;15.70;73.60;;;;;;4967813;28;95732;-62
2022/05/30 00:26:43;;;;;;;20.27;16.00;;;15.60;73.70;;;;;;4967118;28;96902;-62
2022/05/30 00:29:14;;;;;;;23.88;16.80;;;15.60;73.60;;;;;;4967125;28;95528;-61
2022/05/30 00:31:44;;;;;;;19.85;15.07;;;15.70;73.60;;;;;;4960763;28;95774;-62
2022/05/30 00:34:14;;;;;;;18.90;15.38;;;15.60;73.70;;;;;;4966951;28;95561;-64
2022/05/30 00:36:44;;;;;;;20.10;15.15;;;15.60;73.70;;;;;;4948267;28;96333;-63
2022/05/30 00:39:14;;;;;;;19.40;14.60;;;15.60;73.70;;;;;;4966770;28;95898;-62
2022/05/30 00:41:45;;;;;;;19.50;15.00;;;15.60;73.70;;;;;;4967667;28;95605;-59
2022/05/30 00:44:16;;;;;;;17.02;14.00;;;15.60;73.70;;;;;;4967580;28;95614;-62
2022/05/30 00:46:46;;;;;;;18.48;13.95;;;15.60;73.70;;;;;;4957736;28;96504;-61
2022/05/30 00:49:18;;;;;;;17.25;12.90;;;15.60;73.70;;;;;;4967914;28;95406;-61
2022/05/30 00:51:55;;;;;;;17.23;13.63;;;15.60;73.70;;;;;;4969138;28;95212;-61
2022/05/30 00:54:37;;;;;;;17.83;14.00;;;15.50;73.60;;;;;;4965819;28;96120;-61
2022/05/30 00:57:22;;;;;;;18.17;13.90;;;15.50;73.60;;;;;;4967101;28;95835;-62
2022/05/30 00:59:59;;;;;;;17.42;13.82;;;15.50;73.70;;;;;;4950292;28;97770;-62
2022/05/30 01:02:35;;;;;;;17.60;13.35;;;15.50;73.70;;;;;;4977926;28;95844;-62
2022/05/30 01:08:01;;;;;;;17.65;13.05;;;15.50;73.80;;;;;;4950047;28;98812;-62
2022/05/30 01:10:36;;;;;;;16.60;12.95;;;15.50;73.80;;;;;;4947416;28;97239;-62
2022/05/30 01:13:13;;;;;;;16.15;13.45;;;15.40;73.80;;;;;;4957367;28;97019;-62
2022/05/30 01:15:44;;;;;;;16.83;13.88;;;15.40;73.80;;;;;;4961893;28;95768;-63
2022/05/30 01:18:28;;;;;;;16.27;13.07;;;15.40;73.80;;;;;;4968791;28;96962;-63
2022/05/30 01:21:37;;;;;;;16.40;13.10;;;15.40;73.80;;;;;;4970365;28;95864;-63
2022/05/30 01:24:23;;;;;;;16.73;13.15;;;15.40;73.90;;;;;;4934928;28;96125;-62
2022/05/30 01:27:37;;;;;;;;;;;15.40;73.90;;;;;;4941134;28;95617;-62
2022/05/30 01:30:12;;;;;;;17.73;13.55;;;15.40;74.60;;;;;;4944506;28;98702;-62
2022/05/30 01:32:44;;;;;;;18.40;14.73;;;15.40;73.90;;;;;;4934024;28;104186;-63
2022/05/30 01:35:25;;;;;;;16.27;13.25;;;15.40;74.00;;;;;;4949175;28;95914;-62
2022/05/30 01:37:58;;;;;;;17.13;13.18;;;15.40;74.00;;;;;;4936626;28;96214;-61
2022/05/30 01:40:31;;;;;;;15.90;12.90;;;15.40;74.00;;;;;;4931881;28;97625;-62
2022/05/30 01:43:02;;;;;;;15.35;11.90;;;15.40;74.10;;;;;;4928802;28;95646;-62
2022/05/30 01:45:33;;;;;;;17.73;13.05;;;15.40;74.10;;;;;;4920020;28;96101;-62
2022/05/30 01:48:05;;;;;;;15.95;12.98;;;15.30;74.10;;;;;;4942967;28;97683;-63
2022/05/30 01:50:37;;;;;;;17.35;13.40;;;15.30;74.70;;;;;;4947405;28;96047;-62
2022/05/30 01:53:21;;;;;;;15.85;11.85;;;15.40;74.20;;;;;;4946908;28;95793;-62
2022/05/30 01:56:15;;;;;;;16.48;11.32;;;15.40;74.10;;;;;;4925814;28;95873;-63
2022/05/30 01:58:46;;;;;;;13.23;11.40;;;15.40;74.10;;;;;;4958631;28;95388;-62
2022/05/30 02:01:35;;;;;;;15.48;11.35;;;15.40;74.20;;;;;;4960128;28;95977;-62
2022/05/30 02:04:07;;;;;;;12.52;9.90;;;15.40;74.20;;;;;;4961551;28;100338;-62
2022/05/30 02:06:38;;;;;;;14.57;10.57;;;15.40;74.20;;;;;;4967712;28;95829;-62
2022/05/30 02:09:11;;;;;;;14.45;10.68;;;15.40;74.20;;;;;;4955128;28;95378;-60
2022/05/30 02:11:42;;;;;;;11.00;9.27;;;15.40;74.20;;;;;;4964904;28;96033;-61
2022/05/30 02:14:25;;;;;;;13.48;10.57;;;15.40;74.20;;;;;;4963476;28;95851;-61
2022/05/30 02:17:04;;;;;;;12.07;9.95;;;15.40;74.20;;;;;;4967955;28;95358;-62
2022/05/30 02:19:42;;;;;;;11.57;9.40;;;15.50;74.40;;;;;;4983322;28;95722;-63
2022/05/30 02:22:21;;;;;;;14.70;9.73;;;15.40;74.40;;;;;;4982991;28;98363;-62
2022/05/30 02:24:51;;;;;;;10.43;8.95;;;15.50;74.60;;;;;;4982873;28;95626;-62
2022/05/30 02:27:24;;;;;;;11.18;9.02;;;15.50;74.70;;;;;;4968104;28;95351;-61
2022/05/30 02:29:58;;;;;;;11.30;9.32;;;15.50;74.80;;;;;;4952017;28;96065;-61
2022/05/30 02:32:30;;;;;;;10.95;8.48;;;15.50;75.00;;;;;;4964420;28;96793;-61
2022/05/30 02:37:49;;;;;;;11.25;8.15;;;15.50;75.10;;;;;;4968999;28;96591;-62
2022/05/30 02:40:50;;;;;;;12.20;8.55;;;15.50;75.00;;;;;;4931774;28;95528;-62
2022/05/30 02:43:39;;;;;;;9.30;8.02;;;15.50;75.10;;;;;;4967214;28;95664;-62
2022/05/30 02:46:12;;;;;;;11.05;8.13;;;15.50;75.20;;;;;;4963394;28;96164;-62
2022/05/30 02:48:45;;;;;;;9.48;6.95;;;15.50;75.10;;;;;;4985107;28;95456;-62
2022/05/30 02:51:17;;;;;;;10.38;7.63;;;15.60;75.20;;;;;;4969589;28;95825;-62
2022/05/30 02:53:49;;;;;;;8.70;7.25;;;15.50;75.20;;;;;;4968634;28;98741;-62
2022/05/30 02:56:36;;;;;;;10.15;6.90;;;15.60;75.20;;;;;;4968500;28;95325;-62
2022/05/30 02:59:07;;;;;;;8.75;7.78;;;15.60;75.20;;;;;;4985793;28;95624;-63
2022/05/30 03:01:46;;;;;;;9.63;7.28;;;15.50;75.10;;;;;;4955563;28;95408;-64
2022/05/30 03:04:19;;;;;;;11.68;6.63;;;15.60;75.20;;;;;;4952630;28;98295;-65
2022/05/30 03:06:50;;;;;;;8.27;6.65;;;15.70;75.20;;;;;;4968858;28;95983;-63
2022/05/30 03:09:23;;;;;;;8.15;5.80;;;15.70;75.20;;;;;;4959662;28;95788;-62
2022/05/30 03:12:10;;;;;;;9.45;6.20;;;15.70;75.20;;;;;;4964067;28;95826;-64
2022/05/30 03:14:40;;;;;;;;;;;15.80;75.20;;;;;;4962259;28;98258;-64
2022/05/30 03:17:12;;;;;;;7.40;5.40;;;15.80;75.10;;;;;;4945625;28;97236;-65
2022/05/30 03:19:51;;;;;;;9.30;6.43;;;15.80;75.20;;;;;;4982327;28;97476;-64
2022/05/30 03:22:23;;;;;;;6.95;5.28;;;15.80;75.20;;;;;;4965391;28;95443;-63
2022/05/30 03:25:14;;;;;;;6.30;5.03;;;15.80;75.20;;;;;;4957851;28;96972;-64
2022/05/30 03:27:46;;;;;;;8.55;5.85;;;15.80;75.10;;;;;;4966012;28;95741;-64
2022/05/30 03:30:17;;;;;;;6.03;4.85;;;15.70;75.10;;;;;;4977475;28;95870;-63
2022/05/30 03:32:48;;;;;;;6.63;5.28;;;15.70;75.10;;;;;;4945765;28;96103;-61
2022/05/30 03:35:19;;;;;;;7.35;5.57;;;15.70;75.10;;;;;;4962822;28;95983;-64
2022/05/30 03:38:02;;;;;;;5.88;4.22;;;15.60;75.50;;;;;;4946727;28;96250;-64
2022/05/30 03:40:51;;;;;;;5.72;4.82;;;15.60;75.80;;;;;;4956200;28;95905;-61
2022/05/30 03:43:41;;;;;;;7.05;5.25;;;15.70;75.80;;;;;;4964474;28;95388;-64
2022/05/30 03:46:12;;;;;;;5.30;4.43;;;15.70;75.60;;;;;;4967981;28;98261;-63
2022/05/30 03:48:44;;;;;;;5.10;4.40;;;15.70;75.50;;;;;;4957151;28;98083;-52
2022/05/30 03:51:15;;;;;;;5.13;4.47;;;15.70;75.60;;;;;;4946701;28;96079;-52
2022/05/30 03:53:47;;;;;;;6.30;4.30;;;15.70;75.50;;;;;;4956960;28;96429;-49
2022/05/30 03:56:19;;;;;;;6.50;4.35;;;15.70;75.40;;;;;;4963537;28;96735;-50
2022/05/30 03:58:50;;;;;;;7.00;4.93;;;15.60;75.30;;;;;;4958089;28;98534;-48
2022/05/30 04:01:21;;;;;;;7.55;4.55;;;15.60;75.60;;;;;;4965704;28;96895;-50
2022/05/30 04:03:52;;;;;;;4.82;4.32;;;15.60;75.80;;;;;;4979802;28;95683;-48
2022/05/30 04:06:23;;;;;;;6.35;4.10;;;15.60;76.00;;;;;;4964642;28;98388;-48
2022/05/30 04:08:56;;;;;;;7.22;4.70;;;15.50;76.00;;;;;;4983377;28;96038;-51
2022/05/30 04:11:28;;;;;;;6.23;4.33;;;15.50;76.10;;;;;;4981125;28;95544;-48
2022/05/30 04:14:18;;;;;;;5.63;4.20;;;15.50;76.10;;;;;;4980683;28;96355;-47
2022/05/30 04:17:11;;;;;;;4.28;3.78;;;15.50;76.10;;;;;;4962725;28;98166;-46
2022/05/30 04:19:43;;;;;;;4.65;3.72;;;15.50;76.20;;;;;;4956334;28;97418;-48
2022/05/30 04:22:15;;;;;;;5.13;3.45;;;15.50;76.20;;;;;;4947003;28;95685;-46
2022/05/30 04:25:13;;;;;;;6.45;4.35;;;15.50;76.20;;;;;;4960015;28;96046;-46
2022/05/30 04:27:44;;;;;;;3.42;3.13;;;15.50;76.20;;;;;;4963277;28;96201;-45
2022/05/30 04:30:16;;;;;;;4.55;3.65;;;15.50;76.20;;;;;;4957068;28;96387;-46
2022/05/30 04:32:52;;;;;;;4.97;3.92;;;15.40;76.10;;;;;;4941411;28;97076;-46
2022/05/30 04:35:23;;;;;;;;;;;15.40;76.20;;;;;;4963986;28;95857;-48
2022/05/30 04:37:54;;;;;;;5.15;4.13;;;15.40;76.20;;;;;;4965171;28;96113;-47
2022/05/30 04:40:55;;;;;;;3.97;3.58;;;15.40;76.20;;;;;;4961120;28;96045;-47
2022/05/30 04:43:59;;;;;;;4.32;3.58;;;15.40;76.10;;;;;;4947348;28;96186;-47
2022/05/30 04:46:58;;;;;;;4.20;3.80;;;15.40;76.20;;;;;;4944224;28;95449;-47
2022/05/30 04:49:32;;;;;;;4.13;3.38;;;15.40;76.20;;;;;;4960002;28;97444;-47
2022/05/30 04:52:05;;;;;;;3.38;3.08;;;15.40;76.20;;;;;;4964961;28;96079;-48
2022/05/30 04:54:37;;;;;;;3.35;3.00;;;15.40;76.10;;;;;;4964980;28;95915;-49
2022/05/30 04:57:27;;;;;;;3.80;3.10;;;15.40;76.10;;;;;;4966664;28;96190;-48
2022/05/30 05:00:21;;;;;;;3.85;2.83;;;15.50;76.20;;;;;;4958843;28;96149;-47
2022/05/30 05:02:56;;;;;;;3.38;2.55;;;15.60;75.80;;;;;;4981154;28;96401;-47
2022/05/30 05:05:28;;;;;;;2.80;2.60;;;15.70;75.80;;;;;;4981835;28;95187;-48
2022/05/30 05:08:18;;;;;;;3.97;2.30;;;15.80;75.90;;;;;;4966146;28;98292;-47
2022/05/30 05:11:20;;;;;;;3.30;2.50;;;15.80;75.90;;;;;;4978845;28;95827;-47
2022/05/30 05:14:21;;;;;;;2.72;2.38;;;15.90;75.90;;;;;;4944775;28;96250;-48
2022/05/30 05:17:12;;;;;;;2.42;1.92;;;16.00;75.80;;;;;;4966704;28;95893;-48
2022/05/30 05:19:43;;;;;;;2.28;2.08;;;16.00;75.90;;;;;;4961667;28;95420;-50
2022/05/30 05:22:15;;;;;;;2.15;1.95;;;16.10;76.10;;;;;;4945183;28;96638;-49
2022/05/30 05:24:46;;;;;;;2.03;1.83;;;16.10;76.00;;;;;;4960548;28;97282;-47
2022/05/30 05:27:18;;;;;;;2.28;1.77;;;16.10;75.90;;;;;;4962101;28;96096;-47
2022/05/30 05:29:54;;;;;;;2.55;2.13;;;16.10;76.00;;;;;;4960982;28;96164;-49
2022/05/30 05:32:24;;;;;;;2.58;2.10;;;16.10;75.90;;;;;;4937385;28;98376;-49
2022/05/30 05:34:58;;;;;;;1.98;1.85;;;16.10;75.80;;;;;;4946590;28;95848;-48
2022/05/30 05:37:29;;;;;;;2.55;2.33;;;16.20;75.70;;;;;;4958009;28;95636;-48
2022/05/30 05:40:27;;;;;;;1.98;1.85;;;16.20;75.60;;;;;;4963913;28;95847;-47
2022/05/30 05:42:57;;;;;;;4.22;2.53;;;16.20;75.50;;;;;;4946542;28;96772;-47
2022/05/30 05:45:29;;;;;;;2.47;2.28;;;16.20;75.40;;;;;;4939263;28;96545;-48
2022/05/30 05:48:01;;;;;;;2.85;2.50;;;16.20;75.30;;;;;;4961971;28;96037;-47
2022/05/30 05:50:32;;;;;;;;;;;16.20;76.00;;;;;;4961126;28;95801;-46
2022/05/30 05:53:08;;;;;;;2.95;2.00;;;16.30;75.10;;;;;;4944798;28;96674;-49
2022/05/30 05:55:42;;;;;;;2.00;1.80;;;16.30;75.00;;;;;;4944187;28;97813;-47
2022/05/30 05:58:13;;;;;;;2.00;1.80;;;16.30;74.90;;;;;;4962179;28;95350;-47
2022/05/30 06:03:41;;;;;;;3.03;2.47;;;16.30;74.80;;;;;;4963023;28;97240;-48
2022/05/30 06:06:41;;;;;;;1.92;1.73;;;16.30;74.90;;;;;;4899180;28;96027;-46
2022/05/30 06:09:28;;;;;;;2.25;2.05;;;16.30;74.80;;;;;;4964806;28;96225;-47
2022/05/30 06:12:20;;;;;;;2.67;2.47;;;16.30;75.00;;;;;;4962898;28;95717;-49
2022/05/30 06:14:51;;;;;;;2.38;2.13;;;16.20;74.80;;;;;;4946492;28;98888;-48
2022/05/30 06:17:23;;;;;;;3.15;2.80;;;16.30;75.10;;;;;;4938881;28;97991;-46
2022/05/30 06:19:56;;;;;;;4.63;2.63;;;16.30;74.60;;;;;;4962395;28;95417;-47
2022/05/30 06:22:27;;;;;;;7.75;3.00;;;16.30;74.60;;;;;;4965872;28;95803;-47
2022/05/30 06:24:59;;;;;;;3.50;2.67;;;16.40;74.80;;;;;;4962523;28;96287;-46
2022/05/30 06:27:48;;;;;;;3.05;2.75;;;16.40;74.90;;;;;;4963870;28;96129;-48
2022/05/30 06:30:39;;;;;;;3.08;2.75;;;16.50;75.00;;;;;;4960643;28;96153;-48
2022/05/30 06:33:10;;;;;;;2.63;2.42;;;16.50;74.90;;;;;;4946791;28;96022;-47
2022/05/30 06:35:53;;;;;;;3.10;2.85;;;16.60;74.90;;;;;;4961186;28;98783;-47
2022/05/30 06:38:25;;;;;;;2.97;2.65;;;16.70;74.90;;;;;;4962487;28;97666;-49
2022/05/30 06:41:11;;;;;;;3.25;2.95;;;16.80;75.00;;;;;;4948127;28;96169;-52
2022/05/30 06:43:48;;;;;;;4.75;3.10;;;16.80;75.00;;;;;;4963754;28;95234;-46
2022/05/30 06:46:39;;;;;;;3.00;2.65;;;16.80;75.00;;;;;;4955789;28;96284;-48
2022/05/30 06:49:29;;;;;;;3.50;2.63;;;16.80;74.90;;;;;;4963942;28;96105;-47
2022/05/30 06:52:02;;;;;;;3.53;2.92;;;16.80;74.90;;;;;;4947984;28;95806;-46
2022/05/30 06:54:33;;;;;;;3.50;2.55;;;16.80;74.90;;;;;;4962146;28;95779;-50
2022/05/30 06:59:56;;;;;;;2.45;2.25;;;16.80;75.00;;;;;;4962290;28;95890;-49
2022/05/30 07:02:28;;;;;;;2.97;2.58;;;16.80;75.00;;;;;;4956643;28;98971;-48
2022/05/30 07:05:09;;;;;;;3.67;2.80;;;16.80;74.90;;;;;;4980581;28;96021;-46
2022/05/30 07:07:58;;;;;;;3.80;3.30;;;16.80;74.80;;;;;;4980868;28;96122;-47
2022/05/30 07:10:51;;;;;;;3.22;2.65;;;16.80;74.60;;;;;;4979789;28;97234;-48
2022/05/30 07:13:23;;;;;;;3.45;3.10;;;16.80;74.70;;;;;;4961171;28;95811;-47
2022/05/30 07:15:54;;;;;;;3.72;3.05;;;16.80;74.60;;;;;;4973221;28;95819;-48
2022/05/30 07:18:30;;;;;;;3.78;3.13;;;16.80;74.50;;;;;;4945100;28;97200;-49
2022/05/30 07:21:05;;;;;;;4.07;3.65;;;16.70;74.50;;;;;;4947267;28;95607;-49
2022/05/30 07:23:38;;;;;;;3.88;3.47;;;16.70;74.50;;;;;;4962558;28;95797;-47
2022/05/30 07:26:34;;;;;;;4.20;3.80;;;16.70;74.40;;;;;;4957118;28;96026;-48
2022/05/30 07:29:26;;;;;;;4.00;3.55;;;16.60;74.50;;;;;;4962826;28;95828;-48
2022/05/30 07:32:17;;;;;;;4.68;4.00;;;16.60;74.50;;;;;;4957749;28;95724;-47
2022/05/30 07:35:06;;;;;;;4.38;3.70;;;16.70;74.50;;;;;;4958516;28;95292;-49
2022/05/30 07:37:56;;;;;;;5.60;4.30;;;16.70;74.40;;;;;;4959135;28;96016;-47
2022/05/30 07:40:32;;;;;;;3.78;3.38;;;16.80;74.20;;;;;;4947038;28;96842;-48
2022/05/30 07:43:22;;;;;;;5.68;4.03;;;16.80;74.20;;;;;;4961254;28;95753;-49
2022/05/30 07:46:08;;;;;;;4.70;3.90;;;16.80;74.00;;;;;;4945670;28;95936;-47
2022/05/30 07:49:03;;;;;;;3.67;3.38;;;16.80;72.10;;;;;;4974789;28;96023;-50
2022/05/30 07:51:57;;;;;;;4.35;3.95;;;16.80;74.00;;;;;;4964481;28;96143;-48
2022/05/30 07:54:37;;;;;;;3.95;3.55;;;16.80;73.80;;;;;;4985808;28;96130;-50
2022/05/30 07:57:17;;;;;;;3.90;3.53;;;16.80;73.80;;;;;;4983773;28;96122;-51
2022/05/30 07:59:48;;;;;;;4.83;4.40;;;16.80;73.80;;;;;;4967446;28;96226;-51
2022/05/30 08:02:20;;;;;;;;;;;16.70;73.80;;;;;;4961224;28;98458;-49
2022/05/30 08:04:51;;;;;;;;;;;16.70;73.90;;;;;;4982314;28;95893;-47
2022/05/30 08:07:44;;;;;;;5.40;4.65;;;16.70;73.90;;;;;;4983687;28;95778;-49
2022/05/30 08:10:35;;;;;;;5.05;4.55;;;16.70;73.90;;;;;;4983082;28;95981;-49
2022/05/30 08:13:07;;;;;;;7.07;4.88;;;16.60;74.00;;;;;;4981291;28;96088;-47
2022/05/30 08:15:48;;;;;;;4.65;4.25;;;16.60;74.20;;;;;;4975372;28;96320;-47
2022/05/30 08:18:26;;;;;;;5.15;4.65;;;16.70;74.10;;;;;;4953267;28;96169;-53
2022/05/30 08:21:00;;;;;;;4.72;4.22;;;16.70;74.30;;;;;;4965909;28;95715;-46
2022/05/30 08:23:35;;;;;;;4.70;4.20;;;16.80;74.40;;;;;;4983039;28;97775;-46
2022/05/30 08:26:05;;;;;;;;;;;16.90;74.40;;;;;;4965789;28;97531;-54
2022/05/30 08:28:56;;;;;;;5.65;4.95;;;16.90;74.40;;;;;;4984422;28;95452;-51
2022/05/30 08:31:27;;;;;;;7.05;5.38;;;17.00;74.50;;;;;;4976680;28;96118;-50
2022/05/30 08:34:15;;;;;;;5.18;4.22;;;17.00;74.70;;;;;;4987065;28;95838;-51
2022/05/30 08:37:00;;;;;;;5.30;4.03;;;17.10;74.90;;;;;;4982236;28;96076;-50
2022/05/30 08:42:29;;;;;;;5.03;4.38;;;17.20;76.30;;;;;;4966142;28;95796;-52
2022/05/30 08:45:13;;;;;;;5.47;4.70;;;17.20;76.90;;;;;;4976514;28;96860;-49
2022/05/30 08:48:31;;;;;;;6.32;5.45;;;17.20;77.10;;;;;;4966990;28;104177;-50
2022/05/30 08:51:17;;;;;;;5.72;4.72;;;17.20;77.80;;;;;;4969226;28;96090;-55
2022/05/30 08:53:49;;;;;;;5.75;5.13;;;17.30;77.90;;;;;;4967816;28;95933;-54
2022/05/30 08:56:34;;;;;;;4.55;3.90;;;17.20;77.80;;;;;;4980605;28;97477;-49
2022/05/30 08:59:43;;;;;;;6.68;4.85;;;17.20;77.70;;;;;;4979931;28;96348;-51
2022/05/30 09:02:25;;;;;;;6.20;4.88;;;17.20;77.50;;;;;;4973534;28;95818;-49
2022/05/30 09:05:25;;;;;;;5.70;4.30;;;17.20;77.20;;;;;;4981275;28;96347;-50
2022/05/30 09:08:27;;;;;;;4.97;4.47;;;17.10;77.40;;;;;;4983231;28;96122;-49
2022/05/30 09:11:42;;;;;;;4.95;4.47;;;17.10;76.80;;;;;;4982462;28;97897;-47
2022/05/30 09:14:31;;;;;;;5.18;4.55;;;17.00;76.60;;;;;;4961230;28;95807;-47
2022/05/30 09:17:06;;;;;;;5.93;4.30;;;16.90;76.60;;;;;;4941777;28;95552;-47
2022/05/30 09:19:36;;;;;;;5.15;4.55;;;16.90;76.60;;;;;;4961388;28;96118;-49
2022/05/30 09:22:09;;;;;;;;;;;16.90;76.50;;;;;;4980157;28;96212;-53
2022/05/30 09:27:51;;;;;;;4.95;4.45;;;16.80;76.30;;;;;;4964360;28;95880;-58
2022/05/30 09:31:18;;;;;;;4.55;4.15;;;16.80;76.40;;;;;;4970904;28;95916;-57
2022/05/30 09:34:45;;;;;;;6.68;4.55;;;16.80;74.50;;;;;;4973965;28;96113;-56
2022/05/30 09:37:38;;;;;;;5.07;3.97;;;16.80;76.20;;;;;;4977718;28;95762;-54
2022/05/30 09:40:43;;;;;;;5.38;3.92;;;16.80;76.30;;;;;;4962936;28;95870;-55
2022/05/30 09:43:49;;;;;;;4.72;4.30;;;16.90;76.10;;;;;;4965385;28;96995;-56
2022/05/30 09:46:38;;;;;;;4.60;3.85;;;16.90;75.50;;;;;;4961629;28;98143;-54
2022/05/30 09:49:50;;;;;;;3.92;3.63;;;17.00;75.60;;;;;;4983195;28;95358;-56
2022/05/30 09:52:34;;;;;;;4.60;3.75;;;16.90;75.40;;;;;;4966125;28;95937;-54
2022/05/30 09:55:32;;;;;;;4.28;3.75;;;16.90;76.20;;;;;;4972094;28;96131;-56
2022/05/30 09:58:10;;;;;;;4.25;3.75;;;17.00;75.40;;;;;;4963027;28;96073;-55
2022/05/30 10:01:07;;;;;;;4.40;3.95;;;17.00;75.20;;;;;;4975622;28;98543;-53
2022/05/30 10:03:44;;;;;;;4.72;3.88;;;17.00;73.20;;;;;;4978026;28;95967;-57
2022/05/30 10:06:35;;;;;;;4.75;4.35;;;17.00;74.90;;;;;;4978003;28;96077;-56
2022/05/30 10:09:23;;;;;;;4.32;3.80;;;17.00;74.80;;;;;;4974969;28;97429;-56
2022/05/30 10:12:01;;;;;;;4.60;3.88;;;17.00;74.70;;;;;;4966923;28;96144;-56
2022/05/30 10:14:35;;;;;;;4.03;3.63;;;17.00;74.80;;;;;;4982544;28;95990;-57
2022/05/30 10:17:33;;;;;;;4.90;4.40;;;17.00;74.80;;;;;;4959108;28;98275;-54
2022/05/30 10:20:15;;;;;;;4.90;4.38;;;16.90;74.80;;;;;;4959004;28;96609;-55
2022/05/30 10:30:16;;;;;;;;;;;16.80;75.10;;;;;;4976753;28;96357;-52
2022/05/30 10:33:45;;;;;;;4.20;3.80;;;16.70;75.20;;;;;;4971368;28;101567;-56
2022/05/30 10:36:44;;;;;;;4.28;3.70;;;16.70;75.20;;;;;;4963566;28;95978;-56
2022/05/30 10:39:18;;;;;;;4.85;4.03;;;16.70;75.20;;;;;;4984958;28;95541;-53
2022/05/30 10:41:54;;;;;;;4.78;3.97;;;16.70;75.20;;;;;;4986721;28;98009;-55
2022/05/30 10:44:36;;;;;;;5.47;3.95;;;16.70;75.10;;;;;;4969591;28;98738;-53
2022/05/30 10:47:22;;;;;;;4.85;4.25;;;16.70;75.00;;;;;;4965319;28;96084;-52
2022/05/30 10:50:10;;;;;;;4.53;3.87;;;16.60;74.90;;;;;;4987157;28;95833;-52
2022/05/30 10:52:54;;;;;;;4.20;3.80;;;16.60;75.00;;;;;;4984937;28;96103;-53
2022/05/30 10:55:43;;;;;;;4.85;4.18;;;16.60;75.10;;;;;;4969251;28;96128;-53
2022/05/30 10:58:23;;;;;;;4.47;4.03;;;16.60;75.10;;;;;;4973759;28;96091;-56
2022/05/30 11:01:08;;;;;;;4.73;3.87;;;16.50;75.20;;;;;;4976214;28;95699;-53
2022/05/30 11:03:45;;;;;;;4.20;3.65;;;16.50;73.40;;;;;;4945858;28;96112;-53
2022/05/30 11:06:26;;;;;;;4.57;4.18;;;16.40;75.30;;;;;;4961068;28;96010;-51
2022/05/30 11:09:26;;;;;;;4.80;3.90;;;16.40;75.30;;;;;;4967363;28;97048;-52
2022/05/30 11:12:29;;;;;;;4.60;4.13;;;16.30;75.30;;;;;;4958697;28;95687;-54
2022/05/30 11:15:14;;;;;;;5.13;4.03;;;16.30;75.40;;;;;;4937007;28;96711;-50
2022/05/30 11:19:12;;;;;;;4.82;3.70;;;16.30;75.50;;;;;;4939213;28;101755;-52
2022/05/30 11:22:19;;;;;;;4.40;3.92;;;16.20;75.50;;;;;;4932948;28;97628;-50
2022/05/30 11:24:54;;;;;;;4.50;4.10;;;16.20;75.60;;;;;;4986250;28;95779;-49
2022/05/30 11:27:42;;;;;;;4.78;4.10;;;16.20;75.70;;;;;;4970585;28;98336;-54
2022/05/30 11:30:27;;;;;;;5.03;4.00;;;16.10;75.70;;;;;;4987324;28;95898;-51
2022/05/30 11:33:28;;;;;;;5.63;4.63;;;16.10;75.60;;;;;;4988425;28;95701;-52
2022/05/30 11:36:21;;;;;;;5.85;4.57;;;16.10;75.70;;;;;;4988191;28;95753;-49
2022/05/30 11:38:58;;;;;;;7.53;4.80;;;16.10;75.70;;;;;;4988592;28;96387;-54
2022/05/30 11:42:08;;;;;;;6.75;4.90;;;16.10;75.70;;;;;;4988037;28;95807;-55
2022/05/30 11:44:56;;;;;;;8.77;5.32;;;16.00;75.80;;;;;;4983700;28;95304;-51
2022/05/30 11:47:27;;;;;;;8.18;5.32;;;16.00;75.90;;;;;;4983924;28;95498;-55
2022/05/30 11:50:22;;;;;;;7.57;5.22;;;16.00;75.90;;;;;;4988331;28;96851;-50
2022/05/30 11:53:13;;;;;;;7.90;5.72;;;15.90;75.90;;;;;;4987837;28;95965;-53
2022/05/30 11:56:13;;;;;;;8.68;6.20;;;15.90;76.00;;;;;;4985201;28;95865;-51
2022/05/30 11:59:11;;;;;;;10.10;6.47;;;15.90;76.00;;;;;;4984276;28;97207;-54
2022/05/30 12:01:46;;;;;;;8.80;6.53;;;15.90;76.00;;;;;;4979894;28;96913;-54
2022/05/30 12:05:11;;;;;;;9.10;6.68;;;15.80;76.00;;;;;;4990725;28;96035;-51
2022/05/30 12:08:27;;;;;;;10.52;7.20;;;15.80;76.00;;;;;;4929258;28;95533;-52
2022/05/30 12:11:28;;;;;;;11.43;7.07;;;15.80;76.10;;;;;;4941222;28;95660;-52
2022/05/30 12:14:20;;;;;;;9.45;6.90;;;15.80;76.10;;;;;;4986854;28;96532;-52
2022/05/30 12:17:21;;;;;;;11.73;7.95;;;15.70;76.10;;;;;;4979464;28;95969;-51
2022/05/30 12:26:03;;;;;;;9.18;7.20;;;15.60;76.30;;;;;;4991952;28;95878;-53
2022/05/30 12:28:34;;;;;;;12.07;8.82;;;15.60;76.30;;;;;;4984316;28;96498;-53
2022/05/30 12:31:08;;;;;;;11.13;7.60;;;15.60;76.30;;;;;;4955501;28;96632;-53
2022/05/30 12:33:50;;;;;;;11.63;7.95;;;15.60;75.60;;;;;;4971594;28;95983;-52
2022/05/30 12:36:19;;;;;;;;;;;15.50;76.40;;;;;;4978233;28;96890;-54
2022/05/30 12:38:56;;;;;;;11.88;8.77;;;15.50;76.40;;;;;;4977131;28;96305;-55
2022/05/30 12:41:34;;;;;;;10.68;8.52;;;15.60;76.40;;;;;;4973920;28;96242;-55
2022/05/30 12:44:24;;;;;;;14.82;8.90;;;15.60;76.30;;;;;;4975117;28;95880;-54
2022/05/30 12:47:13;;;;;;;11.95;8.40;;;15.60;76.20;;;;;;4970717;28;95852;-54
2022/05/30 12:49:49;;;;;;;13.00;8.68;;;15.60;76.20;;;;;;4971807;28;95683;-53
2022/05/30 12:52:36;;;;;;;11.80;8.05;;;15.50;76.20;;;;;;4979302;28;95299;-55
2022/05/30 12:55:13;;;;;;;12.18;8.25;;;15.50;76.20;;;;;;4979253;28;96441;-54
2022/05/30 12:57:45;;;;;;;14.02;8.93;;;15.50;76.30;;;;;;4982587;28;96172;-53
2022/05/30 13:00:42;;;;;;;14.00;9.38;;;15.50;76.20;;;;;;4978878;28;96074;-52
2022/05/30 13:03:30;;;;;;;13.10;8.77;;;15.50;76.20;;;;;;4959656;28;96046;-54
2022/05/30 13:06:10;;;;;;;12.18;8.40;;;15.50;76.20;;;;;;4958426;28;96089;-54
2022/05/30 13:09:05;;;;;;;13.73;9.15;;;15.50;76.20;;;;;;4957136;28;95868;-53
2022/05/30 13:11:56;;;;;;;11.48;7.63;;;15.50;76.20;;;;;;4958616;28;96009;-53
2022/05/30 13:14:44;;;;;;;14.07;9.43;;;15.50;76.10;;;;;;4960079;28;96548;-52
2022/05/30 13:17:23;;;;;;;15.10;9.02;;;15.50;76.10;;;;;;4959186;28;96499;-55
2022/05/30 13:20:17;;;;;;;13.13;8.75;;;15.50;76.10;;;;;;4966259;28;96041;-52
2022/05/30 13:22:59;;;;;;;14.10;7.97;;;15.50;76.70;;;;;;4967904;28;95692;-54
2022/05/30 13:25:42;;;;;;;14.25;8.88;;;15.60;76.30;;;;;;4968327;28;96376;-49
2022/05/30 13:28:32;;;;;;;14.60;9.68;;;15.70;76.20;;;;;;4970112;28;95449;-53
2022/05/30 13:31:07;;;;;;;14.38;8.52;;;15.90;76.30;;;;;;4965351;28;96137;-55
2022/05/30 13:33:43;;;;;;;12.90;8.30;;;15.90;74.30;;;;;;4970141;28;95949;-60
2022/05/30 13:36:32;;;;;;;12.40;8.18;;;16.00;76.00;;;;;;4971913;28;95659;-57
2022/05/30 13:39:05;;;;;;;12.70;7.53;;;16.20;75.60;;;;;;4970520;28;97826;-60
2022/05/30 13:41:39;;;;;;;11.13;7.57;;;16.30;75.50;;;;;;4950899;28;96388;-59
2022/05/30 13:44:34;;;;;;;12.82;7.78;;;16.40;75.30;;;;;;4970703;28;95910;-59
2022/05/30 13:47:13;;;;;;;11.02;7.72;;;16.50;75.20;;;;;;4966681;28;96048;-59
2022/05/30 13:49:50;;;;;;;8.88;6.32;;;16.60;75.10;;;;;;4970964;28;95846;-57
2022/05/30 13:52:31;;;;;;;10.38;7.82;;;16.70;75.10;;;;;;4971216;28;96442;-60
2022/05/30 13:55:17;;;;;;;9.30;7.10;;;16.80;74.90;;;;;;4970920;28;95965;-56
2022/05/30 13:57:50;;;;;;;9.48;6.43;;;16.80;74.80;;;;;;4969325;28;95719;-56
2022/05/30 14:00:35;;;;;;;9.32;6.68;;;17.00;74.70;;;;;;4966397;28;95878;-60
2022/05/30 14:03:06;;;;;;;9.52;7.18;;;17.10;74.50;;;;;;4968998;28;102983;-54
2022/05/30 14:05:40;;;;;;;9.18;6.38;;;17.10;74.60;;;;;;4951835;28;96831;-51
2022/05/30 14:08:25;;;;;;;10.93;7.35;;;17.20;74.40;;;;;;4965341;28;96349;-59
2022/05/30 14:11:01;;;;;;;9.80;6.28;;;17.30;74.20;;;;;;4969580;28;95825;-55
2022/05/30 14:13:38;;;;;;;9.20;6.50;;;17.40;73.90;;;;;;4967373;28;95942;-55
2022/05/30 14:16:34;;;;;;;10.23;6.78;;;17.50;73.80;;;;;;4963749;28;97811;-55
2022/05/30 14:19:24;;;;;;;8.10;5.85;;;17.50;74.30;;;;;;4983104;28;95346;-56
2022/05/30 14:21:58;;;;;;;8.70;6.03;;;17.60;73.50;;;;;;4969849;28;95607;-55
2022/05/30 14:24:32;;;;;;;8.80;6.20;;;17.70;73.40;;;;;;4970111;28;96775;-54
2022/05/30 14:27:15;;;;;;;8.02;5.72;;;17.80;73.40;;;;;;4968380;28;95808;-60
2022/05/30 14:29:48;;;;;;;7.78;6.07;;;17.80;73.10;;;;;;4968192;28;95904;-55
2022/05/30 14:32:20;;;;;;;8.45;5.35;;;17.90;72.90;;;;;;4964190;28;97314;-57